Time;durP1;ratioP1;P1;durP2;ratioP2;P2;SDS_P1;SDS_P2;PMS_P1;PMS_P2;Temp;Humidity;BMP_temperature;BMP_pressure;BME280_temperature;BME280_humidity;BME280_pressure;Samples;Min_cycle;Max_cycle;Signal;HPM_P1;HPM_P2
2023/12/06 00:01:12;;;;;;;15.20;6.70;;;;;;;14.22;30.51;101256.52;105258;1257;62538;-66
2023/12/06 00:03:40;;;;;;;15.40;7.60;;;;;;;14.18;30.36;101257.88;105225;1254;59749;-65
2023/12/06 00:06:08;;;;;;;20.20;9.00;;;;;;;14.11;30.36;101261.94;105318;1253;59694;-61
2023/12/06 00:08:36;;;;;;;15.90;7.30;;;;;;;14.07;30.46;101260.84;105946;1253;62899;-64
2023/12/06 00:11:04;;;;;;;18.30;7.50;;;;;;;14.04;30.45;101262.52;105212;1253;61774;-63
2023/12/06 00:13:31;;;;;;;14.00;6.30;;;;;;;14.03;30.46;101262.08;106777;1257;63816;-63
2023/12/06 00:16:00;;;;;;;18.00;7.60;;;;;;;14.00;30.49;101268.17;105403;1257;59763;-63
2023/12/06 00:18:27;;;;;;;17.80;7.10;;;;;;;13.95;30.54;101264.45;105279;1254;59680;-63
2023/12/06 00:20:55;;;;;;;15.50;7.00;;;;;;;13.94;30.57;101265.40;105468;1253;64177;-63
2023/12/06 00:23:23;;;;;;;17.00;6.90;;;;;;;13.94;30.53;101266.13;105213;1255;60124;-64
2023/12/06 00:25:51;;;;;;;16.10;7.70;;;;;;;13.92;30.45;101264.16;105257;1254;63738;-61
2023/12/06 00:28:18;;;;;;;13.20;7.10;;;;;;;13.91;30.51;101259.31;105176;1258;59641;-57
2023/12/06 00:30:46;;;;;;;13.50;5.90;;;;;;;13.90;30.61;101261.31;105310;1257;59648;-60
2023/12/06 00:33:13;;;;;;;17.80;7.30;;;;;;;13.90;30.46;101258.50;105226;1254;62947;-59
2023/12/06 00:35:41;;;;;;;15.40;6.40;;;;;;;13.89;30.45;101260.03;105153;1257;60214;-61
2023/12/06 00:38:09;;;;;;;13.40;6.70;;;;;;;13.85;30.55;101259.27;105322;1253;63742;-63
2023/12/06 00:40:37;;;;;;;11.50;4.10;;;;;;;13.88;30.57;101259.03;105370;1257;60962;-63
2023/12/06 00:43:05;;;;;;;16.00;5.30;;;;;;;14.00;30.42;101260.92;105306;1253;60439;-62
2023/12/06 00:45:33;;;;;;;13.10;5.30;;;;;;;14.13;30.42;101263.73;105856;1253;63692;-64
2023/12/06 00:48:00;;;;;;;11.00;4.10;;;;;;;14.27;30.44;101266.29;106694;1257;60494;-64
2023/12/06 00:50:28;;;;;;;15.00;4.80;;;;;;;14.38;30.38;101264.86;105090;1258;64352;-63
2023/12/06 00:52:58;;;;;;;12.80;6.30;;;;;;;14.45;30.19;101262.05;105233;1256;60496;-64
2023/12/06 00:55:25;;;;;;;17.30;6.20;;;;;;;14.48;30.27;101260.73;104983;1254;60419;-64
2023/12/06 00:57:53;;;;;;;14.70;6.60;;;;;;;14.50;30.21;101261.45;105063;1253;65039;-57
2023/12/06 01:00:21;;;;;;;16.00;6.50;;;;;;;14.49;30.17;101261.52;105206;1257;60367;-61
2023/12/06 01:02:48;;;;;;;21.00;7.30;;;;;;;14.46;30.14;101258.40;105058;1257;62488;-62
2023/12/06 01:05:16;;;;;;;15.00;6.30;;;;;;;14.43;30.13;101256.67;105106;1257;60545;-62
2023/12/06 01:07:43;;;;;;;12.90;5.10;;;;;;;14.38;30.27;101258.36;105109;1253;61005;-63
2023/12/06 01:10:11;;;;;;;15.60;6.00;;;;;;;14.33;30.28;101258.77;105060;1253;64988;-63
2023/12/06 01:12:39;;;;;;;16.80;6.30;;;;;;;14.29;30.30;101257.45;105417;1253;61354;-63
2023/12/06 01:15:07;;;;;;;15.60;6.40;;;;;;;14.26;30.26;101253.88;105475;1257;62542;-64
2023/12/06 01:17:35;;;;;;;17.80;6.10;;;;;;;14.21;30.23;101250.94;105782;1253;60340;-63
2023/12/06 01:20:06;;;;;;;16.20;7.30;;;;;;;14.15;30.29;101250.16;105145;1255;60355;-63
2023/12/06 01:22:34;;;;;;;17.50;6.50;;;;;;;14.09;30.39;101253.44;105862;1255;65349;-62
2023/12/06 01:25:01;;;;;;;16.60;6.90;;;;;;;14.04;30.37;101247.71;105171;1257;61576;-63
2023/12/06 01:27:29;;;;;;;12.40;6.40;;;;;;;14.01;30.44;101247.98;105441;1260;62511;-64
2023/12/06 01:29:57;;;;;;;13.20;5.20;;;;;;;13.97;30.65;101252.16;105131;1254;60597;-64
2023/12/06 01:32:37;;;;;;;17.30;6.70;;;;;;;13.91;30.59;101249.77;105219;1257;60301;-64
2023/12/06 01:35:07;;;;;;;17.50;8.00;;;;;;;13.88;30.62;101243.88;105781;1253;63649;-65
2023/12/06 01:37:34;;;;;;;16.50;7.00;;;;;;;13.86;30.75;101240.16;106562;1253;61356;-65
2023/12/06 01:40:04;;;;;;;14.90;6.30;;;;;;;13.86;30.72;101235.41;106105;1254;62482;-64
2023/12/06 01:42:32;;;;;;;15.70;7.60;;;;;;;13.85;30.69;101232.48;106746;1254;60560;-64
2023/12/06 01:45:00;;;;;;;12.60;3.30;;;;;;;13.87;30.72;101225.45;104998;1257;60843;-65
2023/12/06 01:47:27;;;;;;;12.60;4.40;;;;;;;13.91;30.61;101218.38;105184;1258;64932;-65
2023/12/06 01:49:59;;;;;;;10.90;4.70;;;;;;;13.96;30.59;101216.08;106175;1256;62471;-64
2023/12/06 01:52:27;;;;;;;13.70;5.20;;;;;;;14.02;30.48;101218.41;105347;1253;64477;-64
2023/12/06 01:54:58;;;;;;;15.50;4.90;;;;;;;14.11;30.42;101222.41;108584;1253;59321;-65
2023/12/06 01:57:29;;;;;;;13.90;6.10;;;;;;;14.18;30.51;101224.66;105353;1256;60364;-64
2023/12/06 01:59:57;;;;;;;13.60;6.90;;;;;;;14.20;30.45;101223.45;105271;1253;64095;-66
2023/12/06 02:02:25;;;;;;;19.40;6.90;;;;;;;14.22;30.31;101223.31;105309;1253;61333;-64
2023/12/06 02:04:53;;;;;;;15.50;6.50;;;;;;;14.21;30.34;101226.39;105306;1253;64232;-64
2023/12/06 02:07:22;;;;;;;12.60;6.10;;;;;;;14.19;30.29;101230.80;105074;1253;60444;-64
2023/12/06 02:09:50;;;;;;;10.80;6.00;;;;;;;14.18;30.20;101231.05;105439;1258;60426;-63
2023/12/06 02:12:17;;;;;;;13.20;6.20;;;;;;;14.17;30.23;101230.07;105313;1253;64967;-63
2023/12/06 02:14:45;;;;;;;14.90;6.60;;;;;;;14.14;30.23;101225.55;105645;1253;61355;-63
2023/12/06 02:17:13;;;;;;;15.30;6.70;;;;;;;14.09;30.30;101222.08;105172;1258;64562;-64
2023/12/06 02:19:40;;;;;;;14.10;5.80;;;;;;;14.06;30.32;101221.94;105306;1253;60831;-64
2023/12/06 02:22:08;;;;;;;15.50;7.70;;;;;;;14.02;30.44;101220.53;105122;1257;60515;-63
2023/12/06 02:24:36;;;;;;;17.00;8.00;;;;;;;13.95;30.36;101226.41;105104;1253;73438;-63
2023/12/06 02:27:04;;;;;;;15.30;6.90;;;;;;;13.92;30.49;101224.02;104994;1253;61358;-63
2023/12/06 02:29:31;;;;;;;16.70;6.40;;;;;;;13.90;30.41;101226.05;105240;1253;63675;-63
2023/12/06 02:31:59;;;;;;;15.80;6.70;;;;;;;13.86;30.48;101227.45;105126;1253;60534;-64
2023/12/06 02:34:27;;;;;;;13.70;6.50;;;;;;;13.78;30.43;101227.01;104992;1253;60577;-63
2023/12/06 02:37:05;;;;;;;18.00;7.70;;;;;;;13.73;30.47;101226.52;105067;1253;63664;-63
2023/12/06 02:39:35;;;;;;;16.70;7.20;;;;;;;13.71;30.56;101231.45;105776;1254;61343;-63
2023/12/06 02:42:04;;;;;;;17.60;6.70;;;;;;;13.71;30.51;101233.26;106697;1253;63697;-64
2023/12/06 02:44:32;;;;;;;18.50;8.20;;;;;;;13.67;30.53;101233.02;105865;1257;60400;-64
2023/12/06 02:47:00;;;;;;;14.30;8.00;;;;;;;13.66;30.69;101224.31;105155;1253;60563;-60
2023/12/06 02:49:27;;;;;;;22.20;7.60;;;;;;;13.66;30.52;101220.45;105171;1253;64972;-61
2023/12/06 02:51:55;;;;;;;14.70;5.70;;;;;;;13.66;30.56;101219.86;106116;1253;62091;-63
2023/12/06 02:54:23;;;;;;;15.00;4.80;;;;;;;13.71;30.57;101219.98;105255;1257;62415;-64
2023/12/06 02:56:51;;;;;;;13.30;5.90;;;;;;;13.77;30.47;101220.07;105306;1257;60509;-63
2023/12/06 02:59:19;;;;;;;13.60;5.70;;;;;;;13.81;30.52;101223.42;105263;1253;60540;-64
2023/12/06 03:01:47;;;;;;;14.80;5.50;;;;;;;13.89;30.55;101225.64;105808;1257;64955;-65
2023/12/06 03:04:15;;;;;;;13.60;5.90;;;;;;;14.00;30.46;101222.99;105576;1258;61404;-64
2023/12/06 03:06:43;;;;;;;13.00;6.10;;;;;;;14.12;30.45;101226.06;105341;1254;62702;-62
2023/12/06 03:09:10;;;;;;;16.40;6.80;;;;;;;14.18;30.50;101224.70;105157;1255;60533;-64
2023/12/06 03:11:38;;;;;;;22.20;8.30;;;;;;;14.22;30.45;101227.20;105934;1254;60432;-63
2023/12/06 03:14:05;;;;;;;16.00;8.40;;;;;;;14.23;30.35;101226.21;105208;1257;64950;-63
2023/12/06 03:16:33;;;;;;;17.40;9.10;;;;;;;14.23;30.34;101227.27;105205;1253;61420;-63
2023/12/06 03:19:02;;;;;;;17.40;7.30;;;;;;;14.22;30.19;101227.33;109199;1253;63753;-65
2023/12/06 03:21:29;;;;;;;18.80;7.60;;;;;;;14.17;30.12;101227.76;105948;1257;60533;-64
2023/12/06 03:23:57;;;;;;;19.80;8.60;;;;;;;14.11;30.13;101226.84;105205;1257;60443;-64
2023/12/06 03:26:25;;;;;;;20.10;10.20;;;;;;;14.10;30.28;101226.91;105261;1259;65242;-65
2023/12/06 03:28:53;;;;;;;19.00;7.40;;;;;;;14.06;30.25;101220.52;105625;1253;61399;-63
2023/12/06 03:31:20;;;;;;;17.40;7.90;;;;;;;14.00;30.18;101218.02;105145;1258;62466;-64
2023/12/06 03:33:48;;;;;;;18.60;8.20;;;;;;;13.92;30.22;101217.73;105499;1253;60547;-60
2023/12/06 03:36:16;;;;;;;22.00;9.80;;;;;;;13.89;30.39;101219.83;105859;1253;60686;-63
2023/12/06 03:38:44;;;;;;;20.10;9.20;;;;;;;13.89;30.36;101216.14;105606;1253;64367;-62
2023/12/06 03:41:12;;;;;;;21.40;7.90;;;;;;;13.85;30.56;101215.91;105203;1255;60367;-61
2023/12/06 03:43:40;;;;;;;23.30;8.80;;;;;;;13.80;30.60;101215.25;105282;1253;62444;-66
2023/12/06 03:46:27;;;;;;;20.50;8.00;;;;;;;13.74;30.62;101218.00;105228;1253;60465;-63
2023/12/06 03:48:55;;;;;;;24.30;10.60;;;;;;;13.70;30.72;101219.77;105227;1260;60356;-63
2023/12/06 03:51:23;;;;;;;18.10;8.10;;;;;;;13.68;30.68;101219.21;105357;1253;63641;-63
2023/12/06 03:53:50;;;;;;;19.10;8.80;;;;;;;13.63;30.74;101219.80;105260;1256;60421;-65
2023/12/06 03:56:18;;;;;;;19.70;8.00;;;;;;;13.58;30.80;101219.64;105250;1253;64161;-65
2023/12/06 03:58:46;;;;;;;16.60;8.10;;;;;;;13.55;30.88;101219.86;105326;1253;60469;-65
2023/12/06 04:01:14;;;;;;;17.50;7.60;;;;;;;13.54;30.92;101218.73;106536;1257;60369;-65
2023/12/06 04:03:41;;;;;;;18.30;5.20;;;;;;;13.60;30.90;101215.65;105274;1253;63766;-65
2023/12/06 04:06:10;;;;;;;14.40;6.20;;;;;;;13.68;30.86;101217.96;105094;1253;61967;-61
2023/12/06 04:08:37;;;;;;;16.40;6.50;;;;;;;13.77;30.77;101217.98;105334;1253;62579;-62
2023/12/06 04:11:06;;;;;;;14.20;5.40;;;;;;;13.87;30.84;101222.92;105132;1257;60547;-63
2023/12/06 04:13:33;;;;;;;20.40;6.50;;;;;;;14.01;30.69;101223.06;106045;1253;60489;-62
2023/12/06 04:16:01;;;;;;;14.50;6.60;;;;;;;14.12;30.67;101227.27;105301;1253;63762;-61
2023/12/06 04:18:29;;;;;;;16.70;8.10;;;;;;;14.19;30.63;101225.70;105215;1254;60330;-62
2023/12/06 04:20:57;;;;;;;17.20;7.40;;;;;;;14.23;30.55;101227.66;105257;1258;62526;-63
2023/12/06 04:23:24;;;;;;;18.40;9.10;;;;;;;14.23;30.47;101231.36;105228;1253;60402;-62
2023/12/06 04:25:52;;;;;;;18.80;8.70;;;;;;;14.21;30.54;101231.88;105157;1258;60457;-63
2023/12/06 04:28:20;;;;;;;20.50;8.60;;;;;;;14.18;30.38;101233.22;105369;1254;63645;-64
2023/12/06 04:30:47;;;;;;;21.50;10.00;;;;;;;14.14;30.46;101233.30;105384;1257;60451;-63
2023/12/06 04:33:15;;;;;;;20.20;8.80;;;;;;;14.12;30.43;101235.55;105259;1254;62425;-63
2023/12/06 04:35:43;;;;;;;35.50;10.10;;;;;;;14.11;30.58;101233.67;105589;1253;60554;-64
2023/12/06 04:38:10;;;;;;;19.10;8.10;;;;;;;14.09;30.46;101236.85;106717;1259;60659;-64
2023/12/06 04:40:38;;;;;;;20.50;8.50;;;;;;;14.02;30.53;101239.06;105232;1256;63878;-63
2023/12/06 04:43:06;;;;;;;20.20;8.90;;;;;;;13.93;30.51;101239.73;105201;1257;71039;-62
2023/12/06 04:45:33;;;;;;;18.90;9.30;;;;;;;13.85;30.57;101241.11;105878;1257;62502;-63
2023/12/06 04:48:01;;;;;;;19.90;8.10;;;;;;;13.78;30.73;101242.73;105337;1253;61331;-63
2023/12/06 04:50:29;;;;;;;17.20;8.20;;;;;;;13.73;30.86;101247.36;105221;1257;60678;-64
2023/12/06 04:52:56;;;;;;;18.70;8.40;;;;;;;13.69;30.86;101245.73;105858;1253;66448;-62
2023/12/06 04:55:24;;;;;;;17.90;8.70;;;;;;;13.65;30.92;101246.63;105282;1255;61410;-64
2023/12/06 04:57:52;;;;;;;18.40;8.40;;;;;;;13.59;31.00;101245.84;105375;1253;63377;-64
2023/12/06 05:00:21;;;;;;;17.80;6.50;;;;;;;13.56;31.07;101245.67;105393;1257;60560;-63
2023/12/06 05:02:49;;;;;;;15.00;5.20;;;;;;;13.57;31.02;101245.09;105083;1257;60527;-64
2023/12/06 05:05:17;;;;;;;16.50;7.50;;;;;;;13.64;30.97;101245.79;105359;1257;63782;-64
2023/12/06 05:07:45;;;;;;;16.00;5.70;;;;;;;13.70;30.96;101251.63;105135;1257;60438;-64
2023/12/06 05:10:14;;;;;;;16.40;5.70;;;;;;;13.80;30.83;101249.48;104959;1254;62502;-64
2023/12/06 05:12:42;;;;;;;17.40;6.60;;;;;;;13.90;30.87;101245.63;105252;1256;60426;-64
2023/12/06 05:15:10;;;;;;;14.20;6.30;;;;;;;13.97;30.77;101245.61;105615;1256;60751;-64
2023/12/06 05:17:38;;;;;;;22.30;8.30;;;;;;;14.00;30.78;101246.30;105733;1255;65548;-60
2023/12/06 05:20:07;;;;;;;15.80;8.40;;;;;;;13.99;30.70;101245.66;104944;1257;61382;-61
2023/12/06 05:22:34;;;;;;;21.80;8.80;;;;;;;13.95;30.66;101242.08;105813;1253;63699;-65
2023/12/06 05:25:03;;;;;;;18.30;8.20;;;;;;;13.93;30.62;101241.73;105844;1253;60441;-62
2023/12/06 05:27:32;;;;;;;17.10;8.50;;;;;;;13.92;30.66;101245.87;107496;1256;60394;-64
2023/12/06 05:30:00;;;;;;;16.90;6.80;;;;;;;13.90;30.65;101250.44;105286;1258;63639;-61
2023/12/06 05:32:28;;;;;;;16.30;6.90;;;;;;;13.85;30.63;101249.41;105211;1253;61467;-61
2023/12/06 05:34:56;;;;;;;18.30;8.50;;;;;;;13.81;30.66;101254.33;106028;1257;62644;-65
2023/12/06 05:37:23;;;;;;;16.80;8.20;;;;;;;13.75;30.71;101251.63;104922;1257;60390;-63
2023/12/06 05:39:51;;;;;;;20.10;8.70;;;;;;;13.71;30.72;101251.59;105012;1256;60473;-61
2023/12/06 05:42:19;;;;;;;17.50;9.10;;;;;;;13.66;30.90;101249.86;105141;1258;64920;-61
2023/12/06 05:44:47;;;;;;;16.70;8.40;;;;;;;13.63;30.71;101254.36;109180;1253;61938;-57
2023/12/06 05:47:14;;;;;;;14.20;7.20;;;;;;;13.58;30.80;101253.34;109140;1254;63759;-54
2023/12/06 05:49:42;;;;;;;15.10;7.00;;;;;;;13.51;30.88;101250.35;109143;1254;58207;-62
2023/12/06 05:52:09;;;;;;;15.30;7.80;;;;;;;13.47;30.87;101247.52;109265;1252;58662;-62
2023/12/06 05:54:37;;;;;;;14.80;7.30;;;;;;;13.45;31.04;101243.74;109174;1253;63643;-62
2023/12/06 05:57:06;;;;;;;14.30;6.30;;;;;;;13.46;30.94;101248.75;108213;1254;60111;-60
2023/12/06 05:59:34;;;;;;;15.80;8.30;;;;;;;13.42;30.93;101251.06;109202;1253;62514;-63
2023/12/06 06:02:02;;;;;;;17.60;8.30;;;;;;;13.42;30.99;101254.90;109217;1252;58278;-63
2023/12/06 06:04:30;;;;;;;13.30;6.10;;;;;;;13.48;30.90;101256.57;109276;1253;58180;-64
2023/12/06 06:06:58;;;;;;;14.10;6.00;;;;;;;13.60;30.85;101260.55;108458;1255;64917;-60
2023/12/06 06:09:25;;;;;;;13.00;5.70;;;;;;;13.71;30.87;101261.98;105212;1258;60483;-62
2023/12/06 06:11:54;;;;;;;13.50;6.30;;;;;;;13.81;30.78;101264.89;105196;1259;63810;-62
2023/12/06 06:14:22;;;;;;;17.70;5.90;;;;;;;13.92;30.73;101265.95;105169;1257;60541;-60
2023/12/06 06:16:50;;;;;;;15.90;6.40;;;;;;;13.99;30.62;101268.56;105132;1254;60378;-63
2023/12/06 06:19:17;;;;;;;18.60;7.30;;;;;;;14.02;30.51;101270.26;105530;1258;64915;-62
2023/12/06 06:21:45;;;;;;;19.40;9.90;;;;;;;14.04;30.53;101272.24;105339;1258;60381;-61
2023/12/06 06:24:13;;;;;;;15.30;7.50;;;;;;;14.01;30.38;101274.45;105277;1257;62485;-62
2023/12/06 06:26:41;;;;;;;16.90;8.10;;;;;;;13.97;30.37;101275.13;105215;1253;60469;-62
2023/12/06 06:29:09;;;;;;;18.60;7.40;;;;;;;13.90;30.38;101274.37;105279;1253;60502;-61
2023/12/06 06:31:36;;;;;;;18.40;8.30;;;;;;;13.89;30.24;101273.63;106635;1253;65410;-61
2023/12/06 06:34:04;;;;;;;20.30;8.00;;;;;;;13.85;30.36;101271.95;105815;1257;60416;-62
2023/12/06 06:36:32;;;;;;;16.90;8.90;;;;;;;13.83;30.36;101274.23;105283;1256;62459;-61
2023/12/06 06:39:00;;;;;;;19.10;7.70;;;;;;;13.80;30.40;101274.70;105929;1257;60536;-55
2023/12/06 06:41:28;;;;;;;17.20;7.70;;;;;;;13.76;30.45;101276.43;105208;1253;60479;-61
2023/12/06 06:43:56;;;;;;;13.50;6.70;;;;;;;13.74;30.39;101282.04;105116;1258;65290;-59
2023/12/06 06:46:23;;;;;;;18.40;9.40;;;;;;;13.66;30.48;101286.73;105211;1258;61238;-67
2023/12/06 06:48:51;;;;;;;18.80;7.70;;;;;;;13.60;30.56;101286.81;106242;1253;62517;-64
2023/12/06 06:51:19;;;;;;;18.00;8.20;;;;;;;13.57;30.69;101287.05;106120;1253;60441;-64
2023/12/06 06:53:46;;;;;;;16.80;7.50;;;;;;;13.56;30.70;101292.92;106122;1253;60479;-65
2023/12/06 06:56:14;;;;;;;18.00;8.70;;;;;;;13.57;30.77;101294.45;106196;1253;64880;-66
2023/12/06 06:58:42;;;;;;;14.40;7.20;;;;;;;13.56;30.67;101293.42;107001;1253;61284;-65
2023/12/06 07:01:09;;;;;;;14.70;6.80;;;;;;;13.55;30.69;101296.17;106160;1253;63755;-68
2023/12/06 07:03:38;;;;;;;14.80;7.40;;;;;;;13.54;30.75;101300.83;106228;1253;60483;-67
2023/12/06 07:06:06;;;;;;;11.80;5.10;;;;;;;13.60;30.73;101299.52;106156;1253;61180;-64
2023/12/06 07:08:35;;;;;;;11.70;6.20;;;;;;;13.70;30.65;101300.67;105913;1258;66689;-62
2023/12/06 07:11:04;;;;;;;19.40;10.70;;;;;;;13.80;30.54;101300.73;105201;1258;68868;-61
2023/12/06 07:13:34;;;;;;;13.00;5.10;;;;;;;13.92;30.59;101301.91;106602;1253;63777;-62
2023/12/06 07:16:04;;;;;;;16.80;7.50;;;;;;;14.05;30.58;101305.30;106518;1253;60100;-61
2023/12/06 07:18:33;;;;;;;11.20;6.20;;;;;;;14.16;30.36;101309.38;105471;1253;60390;-64
2023/12/06 07:21:01;;;;;;;15.90;7.30;;;;;;;14.21;30.33;101311.82;106036;1257;64942;-66
2023/12/06 07:23:29;;;;;;;18.00;8.10;;;;;;;14.20;30.16;101309.05;106087;1253;60406;-66
2023/12/06 07:25:58;;;;;;;15.60;8.30;;;;;;;14.17;30.19;101307.71;106060;1253;64216;-66
2023/12/06 07:28:27;;;;;;;16.30;9.10;;;;;;;14.15;30.19;101305.38;107535;1253;59859;-66
2023/12/06 07:30:59;;;;;;;22.00;8.80;;;;;;;14.16;30.11;101305.50;106239;1253;59230;-67
2023/12/06 07:33:27;;;;;;;23.10;9.50;;;;;;;14.13;30.15;101306.25;106143;1258;64994;-66
2023/12/06 07:35:56;;;;;;;16.70;9.30;;;;;;;14.11;30.11;101305.89;105293;1258;62100;-66
2023/12/06 07:38:25;;;;;;;21.00;10.10;;;;;;;14.09;30.20;101304.80;106165;1258;63048;-66
2023/12/06 07:40:53;;;;;;;18.00;7.10;;;;;;;14.05;30.16;101300.74;106414;1257;60439;-66
2023/12/06 07:43:22;;;;;;;16.60;6.80;;;;;;;14.02;30.17;101305.23;106001;1255;60425;-67
2023/12/06 07:45:50;;;;;;;16.90;8.30;;;;;;;13.99;30.13;101308.95;105788;1253;67352;-62
2023/12/06 07:48:18;;;;;;;18.50;8.40;;;;;;;13.97;30.29;101310.40;105170;1258;60338;-62
2023/12/06 07:50:45;;;;;;;16.60;8.00;;;;;;;13.93;30.31;101311.02;104819;1253;62516;-65
2023/12/06 07:53:14;;;;;;;14.90;7.30;;;;;;;13.93;30.23;101308.73;105280;1254;60563;-65
2023/12/06 07:55:46;;;;;;;16.30;7.60;;;;;;;13.96;30.27;101309.96;109106;1253;58597;-63
2023/12/06 07:58:16;;;;;;;18.30;8.40;;;;;;;13.97;30.22;101314.11;109247;1253;64891;-65
2023/12/06 08:00:49;;;;;;;15.10;8.00;;;;;;;13.98;30.16;101315.23;109201;1253;63480;-59
2023/12/06 08:03:16;;;;;;;15.40;7.80;;;;;;;14.01;30.19;101312.02;108405;1253;63736;-69
2023/12/06 08:05:46;;;;;;;16.90;7.60;;;;;;;14.01;30.21;101317.34;106288;1253;60515;-68
2023/12/06 08:08:17;;;;;;;11.80;5.40;;;;;;;14.07;30.17;101317.66;106469;1253;60620;-69
2023/12/06 08:10:47;;;;;;;21.40;10.80;;;;;;;14.21;30.15;101321.34;106378;1253;65459;-69
2023/12/06 08:13:18;;;;;;;18.30;7.70;;;;;;;14.33;29.95;101324.29;106257;1253;61369;-70
2023/12/06 08:15:46;;;;;;;19.20;10.00;;;;;;;14.44;29.88;101325.45;108154;1253;63662;-69
2023/12/06 08:18:14;;;;;;;19.50;9.10;;;;;;;14.52;29.70;101326.41;106015;1258;60451;-66
2023/12/06 08:20:42;;;;;;;19.60;9.90;;;;;;;14.57;29.73;101324.06;105420;1258;60973;-62
2023/12/06 08:23:10;;;;;;;17.50;7.60;;;;;;;14.60;29.70;101323.30;105154;1256;65428;-61
2023/12/06 08:25:39;;;;;;;17.40;8.20;;;;;;;14.62;29.78;101326.00;105940;1254;61426;-61
2023/12/06 08:28:07;;;;;;;19.10;9.60;;;;;;;14.61;29.62;101327.34;105106;1258;62557;-63
2023/12/06 08:30:36;;;;;;;21.90;8.90;;;;;;;14.59;29.57;101326.44;105572;1253;60569;-68
2023/12/06 08:33:04;;;;;;;21.30;8.60;;;;;;;14.59;29.65;101326.36;106216;1258;59124;-67
2023/12/06 08:35:32;;;;;;;21.50;9.30;;;;;;;14.55;29.59;101323.92;106097;1253;63897;-66
2023/12/06 08:37:59;;;;;;;24.50;9.00;;;;;;;14.51;29.62;101324.90;106071;1258;60989;-67
2023/12/06 08:40:28;;;;;;;20.90;10.10;;;;;;;14.47;29.65;101324.55;105970;1258;62439;-67
2023/12/06 08:42:56;;;;;;;19.30;8.30;;;;;;;14.45;29.80;101323.63;106400;1258;60565;-68
2023/12/06 08:45:24;;;;;;;20.40;11.00;;;;;;;14.46;29.68;101318.80;103134;1254;3783807;-63
2023/12/06 08:49:36;;;;;;;20.30;9.20;;;;;;;12.53;32.81;101322.25;101932;1292;599888;-62
2023/12/06 08:52:05;;;;;;;19.00;9.30;;;;;;;14.18;30.16;101318.05;104235;1270;60453;-58
2023/12/06 08:54:33;;;;;;;19.00;8.80;;;;;;;14.40;29.85;101316.62;108331;1267;57201;-62
2023/12/06 08:57:01;;;;;;;24.00;10.30;;;;;;;14.42;29.88;101315.06;108262;1269;63425;-62
2023/12/06 08:59:29;;;;;;;18.40;8.80;;;;;;;14.44;29.86;101315.36;107494;1257;61355;-63
2023/12/06 09:01:57;;;;;;;16.70;8.10;;;;;;;14.43;29.77;101316.58;102619;1254;3537301;-61
2023/12/06 09:04:25;;;;;;;22.40;9.00;;;;;;;14.44;29.79;101313.31;105322;1253;61503;-61
2023/12/06 09:06:53;;;;;;;24.20;8.90;;;;;;;14.47;29.83;101313.60;105173;1259;59359;-62
2023/12/06 09:09:21;;;;;;;20.30;9.90;;;;;;;14.47;29.80;101315.38;105150;1254;63503;-61
2023/12/06 09:11:49;;;;;;;16.10;7.70;;;;;;;14.47;29.88;101312.69;104982;1254;61428;-62
2023/12/06 09:14:19;;;;;;;12.80;5.60;;;;;;;14.56;29.67;101309.13;109182;1253;62584;-61
2023/12/06 09:16:47;;;;;;;12.90;5.90;;;;;;;14.72;29.52;101305.02;106358;1253;62962;-62
2023/12/06 09:19:16;;;;;;;15.80;6.80;;;;;;;14.86;29.57;101305.05;105879;1253;59726;-60
2023/12/06 09:21:47;;;;;;;25.60;10.90;;;;;;;14.99;29.43;101302.61;108051;1257;64548;-60
2023/12/06 09:24:17;;;;;;;18.70;10.40;;;;;;;15.11;29.16;101306.39;105147;1259;72301;-60
2023/12/06 09:26:45;;;;;;;18.50;9.00;;;;;;;15.16;29.13;101306.09;105319;1258;63823;-61
2023/12/06 09:29:13;;;;;;;21.40;8.10;;;;;;;15.23;29.05;101303.63;105132;1255;60122;-61
2023/12/06 09:31:40;;;;;;;19.10;9.10;;;;;;;15.27;28.97;101298.48;105619;1253;59681;-63
2023/12/06 09:34:08;;;;;;;19.30;10.20;;;;;;;15.30;28.74;101292.23;105623;1259;73399;-63
2023/12/06 09:36:36;;;;;;;17.70;8.70;;;;;;;15.28;28.72;101292.75;105236;1254;62325;-63
2023/12/06 09:39:04;;;;;;;14.10;8.30;;;;;;;15.28;28.72;101289.91;107339;1254;62546;-65
2023/12/06 09:41:32;;;;;;;19.60;8.70;;;;;;;15.27;28.69;101287.58;105078;1257;59755;-61
2023/12/06 09:44:00;;;;;;;24.00;9.80;;;;;;;15.27;28.61;101290.17;105720;1259;59919;-58
2023/12/06 09:46:28;;;;;;;24.10;9.00;;;;;;;15.29;28.60;101291.98;104975;1254;62874;-59
2023/12/06 09:48:56;;;;;;;18.70;8.40;;;;;;;15.28;28.53;101288.34;105019;1256;60398;-60
2023/12/06 09:51:24;;;;;;;18.60;9.10;;;;;;;15.28;28.55;101283.01;105085;1257;63767;-59
2023/12/06 09:53:52;;;;;;;21.70;10.00;;;;;;;15.29;28.50;101282.81;109113;1253;57858;-62
2023/12/06 09:56:20;;;;;;;19.40;9.30;;;;;;;15.29;28.29;101284.84;106981;1256;59597;-59
2023/12/06 09:58:47;;;;;;;19.60;9.50;;;;;;;15.24;28.17;101283.57;105066;1255;75129;-61
2023/12/06 10:01:16;;;;;;;21.80;9.90;;;;;;;15.18;28.34;101286.67;105138;1254;61680;-59
2023/12/06 10:03:46;;;;;;;23.00;9.70;;;;;;;15.13;28.30;101285.38;105548;1254;64349;-60
2023/12/06 10:06:16;;;;;;;19.50;10.00;;;;;;;15.08;28.24;101288.63;105332;1254;62862;-60
2023/12/06 10:08:50;;;;;;;21.30;10.10;;;;;;;15.03;28.27;101292.56;105686;1259;60024;-60
2023/12/06 10:11:22;;;;;;;19.60;8.50;;;;;;;15.00;28.47;101291.75;105069;1253;64183;-60
2023/12/06 10:13:51;;;;;;;18.20;9.20;;;;;;;14.97;28.45;101292.73;105034;1257;60702;-65
2023/12/06 10:16:20;;;;;;;19.60;8.60;;;;;;;14.98;28.56;101293.70;106227;1258;63750;-61
2023/12/06 10:18:52;;;;;;;18.20;7.90;;;;;;;14.98;28.35;101293.85;106164;1259;59734;-63
2023/12/06 10:21:20;;;;;;;17.20;8.20;;;;;;;14.95;28.40;101298.14;105462;1256;59568;-60
2023/12/06 10:23:57;;;;;;;17.80;8.00;;;;;;;14.94;28.33;101294.21;105108;1254;64163;-60
2023/12/06 10:26:27;;;;;;;16.40;8.50;;;;;;;14.94;28.39;101290.35;105271;1254;64336;-62
2023/12/06 10:28:56;;;;;;;18.00;8.70;;;;;;;14.94;28.51;101292.92;105054;1259;63861;-59
2023/12/06 10:31:25;;;;;;;15.20;7.10;;;;;;;14.96;28.34;101292.61;105242;1253;59331;-62
2023/12/06 10:33:55;;;;;;;20.50;7.50;;;;;;;14.98;28.38;101289.22;106103;1259;59680;-62
2023/12/06 10:36:26;;;;;;;16.20;7.90;;;;;;;14.98;28.40;101284.31;105137;1259;75230;-59
2023/12/06 10:38:57;;;;;;;22.60;9.50;;;;;;;14.97;28.41;101282.77;105212;1253;61343;-59
2023/12/06 10:41:26;;;;;;;16.90;10.50;;;;;;;14.95;28.43;101284.05;105234;1253;63885;-62
2023/12/06 10:43:55;;;;;;;22.00;9.40;;;;;;;14.94;28.38;101279.00;105079;1255;60590;-61
2023/12/06 10:46:24;;;;;;;21.10;9.20;;;;;;;14.93;28.38;101278.95;105267;1259;59683;-60
2023/12/06 10:48:56;;;;;;;23.00;9.70;;;;;;;14.93;28.51;101275.17;106014;1253;64171;-60
2023/12/06 10:51:23;;;;;;;20.10;9.40;;;;;;;14.94;28.53;101276.91;105070;1256;63461;-60
2023/12/06 10:53:52;;;;;;;20.20;9.50;;;;;;;14.94;28.52;101272.41;105297;1257;63770;-60
2023/12/06 10:56:20;;;;;;;19.30;7.50;;;;;;;14.94;28.37;101273.34;105107;1259;60229;-61
2023/12/06 10:58:47;;;;;;;16.70;7.10;;;;;;;14.92;28.36;101273.36;105152;1254;59686;-62
2023/12/06 11:01:15;;;;;;;17.90;8.70;;;;;;;14.88;28.40;101266.80;105174;1253;63246;-60
2023/12/06 11:03:43;;;;;;;17.50;9.40;;;;;;;14.89;28.43;101264.58;105569;1257;72255;-64
2023/12/06 11:06:48;;;;;;;19.10;9.00;;;;;;;14.91;28.44;101266.02;106410;1259;74914;-57
2023/12/06 11:09:32;;;;;;;24.30;11.50;;;;;;;14.94;28.37;101259.26;105209;1254;60472;-61
2023/12/06 11:12:20;;;;;;;19.00;9.10;;;;;;;14.93;28.31;101257.88;105921;1254;59512;-59
2023/12/06 11:15:06;;;;;;;19.70;10.30;;;;;;;14.94;28.26;101259.26;106222;1258;64391;-67
2023/12/06 11:17:49;;;;;;;;;;;;;;;14.94;28.36;101256.61;106002;1259;72360;-67